sensor_id;sensor_type;location;lat;lon;timestamp;P1;durP1;ratioP1;P2;durP2;ratioP2
5587;SDS011;2816;49.778;9.986;2023-04-01T00:01:01;6.30;;;1.50;;
5587;SDS011;2816;49.778;9.986;2023-04-01T00:03:28;9.87;;;1.40;;
5587;SDS011;2816;49.778;9.986;2023-04-01T00:05:56;2.50;;;1.20;;
5587;SDS011;2816;49.778;9.986;2023-04-01T00:08:24;3.20;;;1.27;;
5587;SDS011;2816;49.778;9.986;2023-04-01T00:10:52;2.70;;;1.30;;
5587;SDS011;2816;49.778;9.986;2023-04-01T00:13:19;2.60;;;1.30;;
5587;SDS011;2816;49.778;9.986;2023-04-01T00:15:46;1.90;;;0.90;;
5587;SDS011;2816;49.778;9.986;2023-04-01T00:18:16;7.23;;;1.30;;
5587;SDS011;2816;49.778;9.986;2023-04-01T00:20:43;6.40;;;1.07;;
5587;SDS011;2816;49.778;9.986;2023-04-01T00:23:11;5.10;;;1.30;;
5587;SDS011;2816;49.778;9.986;2023-04-01T00:25:38;6.63;;;1.60;;
5587;SDS011;2816;49.778;9.986;2023-04-01T00:28:07;8.93;;;1.40;;
5587;SDS011;2816;49.778;9.986;2023-04-01T00:30:36;3.00;;;1.30;;
5587;SDS011;2816;49.778;9.986;2023-04-01T00:33:03;5.00;;;1.40;;
5587;SDS011;2816;49.778;9.986;2023-04-01T00:35:32;4.17;;;1.23;;
5587;SDS011;2816;49.778;9.986;2023-04-01T00:37:59;4.60;;;1.40;;
5587;SDS011;2816;49.778;9.986;2023-04-01T00:40:27;2.50;;;1.50;;
5587;SDS011;2816;49.778;9.986;2023-04-01T00:42:56;2.00;;;1.30;;
5587;SDS011;2816;49.778;9.986;2023-04-01T00:45:25;2.07;;;1.10;;
5587;SDS011;2816;49.778;9.986;2023-04-01T00:47:56;4.20;;;1.30;;
5587;SDS011;2816;49.778;9.986;2023-04-01T00:50:25;1.53;;;1.30;;
5587;SDS011;2816;49.778;9.986;2023-04-01T00:52:55;3.13;;;1.17;;
5587;SDS011;2816;49.778;9.986;2023-04-01T00:55:23;7.73;;;1.20;;
5587;SDS011;2816;49.778;9.986;2023-04-01T00:57:53;2.07;;;1.20;;
5587;SDS011;2816;49.778;9.986;2023-04-01T01:00:23;2.73;;;1.00;;
5587;SDS011;2816;49.778;9.986;2023-04-01T01:02:51;4.27;;;1.50;;
5587;SDS011;2816;49.778;9.986;2023-04-01T01:05:18;1.60;;;1.17;;
5587;SDS011;2816;49.778;9.986;2023-04-01T01:07:54;3.73;;;1.20;;
5587;SDS011;2816;49.778;9.986;2023-04-01T01:10:30;2.40;;;1.27;;
5587;SDS011;2816;49.778;9.986;2023-04-01T01:13:00;7.73;;;1.43;;
5587;SDS011;2816;49.778;9.986;2023-04-01T01:15:36;8.33;;;1.33;;
5587;SDS011;2816;49.778;9.986;2023-04-01T01:18:09;2.30;;;1.20;;
5587;SDS011;2816;49.778;9.986;2023-04-01T01:20:57;5.77;;;1.40;;
5587;SDS011;2816;49.778;9.986;2023-04-01T01:26:47;2.77;;;1.20;;
5587;SDS011;2816;49.778;9.986;2023-04-01T01:29:33;7.30;;;1.17;;
5587;SDS011;2816;49.778;9.986;2023-04-01T01:32:11;5.30;;;1.30;;
5587;SDS011;2816;49.778;9.986;2023-04-01T01:34:47;6.37;;;1.30;;
5587;SDS011;2816;49.778;9.986;2023-04-01T01:37:20;2.30;;;1.10;;
5587;SDS011;2816;49.778;9.986;2023-04-01T01:39:52;6.03;;;1.60;;
5587;SDS011;2816;49.778;9.986;2023-04-01T01:42:22;4.03;;;1.60;;
5587;SDS011;2816;49.778;9.986;2023-04-01T01:44:52;1.20;;;0.90;;
5587;SDS011;2816;49.778;9.986;2023-04-01T01:47:21;1.73;;;0.97;;
5587;SDS011;2816;49.778;9.986;2023-04-01T01:49:49;1.30;;;1.17;;
5587;SDS011;2816;49.778;9.986;2023-04-01T01:52:17;3.30;;;1.23;;
5587;SDS011;2816;49.778;9.986;2023-04-01T01:54:47;1.77;;;1.10;;
5587;SDS011;2816;49.778;9.986;2023-04-01T01:57:14;1.37;;;1.03;;
5587;SDS011;2816;49.778;9.986;2023-04-01T01:59:43;2.50;;;0.90;;
5587;SDS011;2816;49.778;9.986;2023-04-01T02:02:12;5.00;;;1.20;;
5587;SDS011;2816;49.778;9.986;2023-04-01T02:04:41;8.77;;;1.20;;
5587;SDS011;2816;49.778;9.986;2023-04-01T02:07:11;3.00;;;1.13;;
5587;SDS011;2816;49.778;9.986;2023-04-01T02:09:44;8.63;;;1.43;;
5587;SDS011;2816;49.778;9.986;2023-04-01T02:12:12;3.60;;;1.53;;
5587;SDS011;2816;49.778;9.986;2023-04-01T02:14:43;7.37;;;1.37;;
5587;SDS011;2816;49.778;9.986;2023-04-01T02:17:14;5.53;;;1.60;;
5587;SDS011;2816;49.778;9.986;2023-04-01T02:19:46;2.13;;;1.33;;
5587;SDS011;2816;49.778;9.986;2023-04-01T02:22:16;9.20;;;1.30;;
5587;SDS011;2816;49.778;9.986;2023-04-01T02:24:49;1.00;;;0.90;;
5587;SDS011;2816;49.778;9.986;2023-04-01T02:27:18;2.40;;;1.03;;
5587;SDS011;2816;49.778;9.986;2023-04-01T02:29:46;2.73;;;1.00;;
5587;SDS011;2816;49.778;9.986;2023-04-01T02:32:13;3.17;;;1.30;;
5587;SDS011;2816;49.778;9.986;2023-04-01T02:34:42;6.17;;;1.50;;
5587;SDS011;2816;49.778;9.986;2023-04-01T02:37:10;2.67;;;1.27;;
5587;SDS011;2816;49.778;9.986;2023-04-01T02:39:38;6.67;;;1.67;;
5587;SDS011;2816;49.778;9.986;2023-04-01T02:42:07;3.47;;;1.40;;
5587;SDS011;2816;49.778;9.986;2023-04-01T02:44:33;4.83;;;1.40;;
5587;SDS011;2816;49.778;9.986;2023-04-01T02:47:01;5.60;;;1.70;;
5587;SDS011;2816;49.778;9.986;2023-04-01T02:49:28;5.30;;;1.17;;
5587;SDS011;2816;49.778;9.986;2023-04-01T02:51:54;2.87;;;1.57;;
5587;SDS011;2816;49.778;9.986;2023-04-01T02:54:21;4.00;;;1.50;;
5587;SDS011;2816;49.778;9.986;2023-04-01T02:56:48;3.83;;;1.73;;
5587;SDS011;2816;49.778;9.986;2023-04-01T02:59:16;1.80;;;1.30;;
5587;SDS011;2816;49.778;9.986;2023-04-01T03:01:43;1.50;;;1.10;;
5587;SDS011;2816;49.778;9.986;2023-04-01T03:04:10;3.10;;;1.53;;
5587;SDS011;2816;49.778;9.986;2023-04-01T03:06:37;4.50;;;1.20;;
5587;SDS011;2816;49.778;9.986;2023-04-01T03:09:04;5.90;;;1.30;;
5587;SDS011;2816;49.778;9.986;2023-04-01T03:11:31;1.40;;;1.10;;
5587;SDS011;2816;49.778;9.986;2023-04-01T03:13:58;2.40;;;1.30;;
5587;SDS011;2816;49.778;9.986;2023-04-01T03:16:26;3.33;;;1.40;;
5587;SDS011;2816;49.778;9.986;2023-04-01T03:18:53;2.90;;;1.50;;
5587;SDS011;2816;49.778;9.986;2023-04-01T03:21:22;3.60;;;1.43;;
5587;SDS011;2816;49.778;9.986;2023-04-01T03:23:50;3.90;;;1.40;;
5587;SDS011;2816;49.778;9.986;2023-04-01T03:26:17;5.80;;;1.40;;
5587;SDS011;2816;49.778;9.986;2023-04-01T03:28:44;9.40;;;1.70;;
5587;SDS011;2816;49.778;9.986;2023-04-01T03:31:11;3.90;;;1.10;;
5587;SDS011;2816;49.778;9.986;2023-04-01T03:33:41;6.67;;;1.30;;
5587;SDS011;2816;49.778;9.986;2023-04-01T03:36:08;5.53;;;1.50;;
5587;SDS011;2816;49.778;9.986;2023-04-01T03:38:37;2.20;;;1.30;;
5587;SDS011;2816;49.778;9.986;2023-04-01T03:41:04;2.60;;;1.30;;
5587;SDS011;2816;49.778;9.986;2023-04-01T03:43:32;2.90;;;1.20;;
5587;SDS011;2816;49.778;9.986;2023-04-01T03:45:59;4.53;;;1.47;;
5587;SDS011;2816;49.778;9.986;2023-04-01T03:48:26;3.40;;;1.20;;
5587;SDS011;2816;49.778;9.986;2023-04-01T03:50:54;7.23;;;1.40;;
5587;SDS011;2816;49.778;9.986;2023-04-01T03:53:21;2.30;;;1.40;;
5587;SDS011;2816;49.778;9.986;2023-04-01T03:55:48;2.20;;;1.03;;
5587;SDS011;2816;49.778;9.986;2023-04-01T03:58:16;6.07;;;1.57;;
5587;SDS011;2816;49.778;9.986;2023-04-01T04:00:43;4.20;;;1.03;;
5587;SDS011;2816;49.778;9.986;2023-04-01T04:03:10;3.80;;;1.23;;
5587;SDS011;2816;49.778;9.986;2023-04-01T04:05:37;4.53;;;1.23;;
5587;SDS011;2816;49.778;9.986;2023-04-01T04:08:05;5.87;;;1.50;;
5587;SDS011;2816;49.778;9.986;2023-04-01T04:10:32;5.17;;;1.20;;
5587;SDS011;2816;49.778;9.986;2023-04-01T04:13:00;3.17;;;1.27;;
5587;SDS011;2816;49.778;9.986;2023-04-01T04:15:27;3.87;;;1.23;;
5587;SDS011;2816;49.778;9.986;2023-04-01T04:17:54;4.40;;;1.13;;
5587;SDS011;2816;49.778;9.986;2023-04-01T04:20:21;2.33;;;1.03;;
5587;SDS011;2816;49.778;9.986;2023-04-01T04:22:48;3.43;;;1.17;;
5587;SDS011;2816;49.778;9.986;2023-04-01T04:25:16;3.23;;;1.20;;
5587;SDS011;2816;49.778;9.986;2023-04-01T04:27:43;1.50;;;1.00;;
5587;SDS011;2816;49.778;9.986;2023-04-01T04:30:10;1.90;;;1.40;;
5587;SDS011;2816;49.778;9.986;2023-04-01T04:32:37;2.40;;;1.30;;
5587;SDS011;2816;49.778;9.986;2023-04-01T04:35:05;1.60;;;1.00;;
5587;SDS011;2816;49.778;9.986;2023-04-01T04:37:33;5.27;;;1.20;;
5587;SDS011;2816;49.778;9.986;2023-04-01T04:40:00;1.13;;;0.90;;
5587;SDS011;2816;49.778;9.986;2023-04-01T04:42:28;5.83;;;1.23;;
5587;SDS011;2816;49.778;9.986;2023-04-01T04:44:55;2.60;;;1.20;;
5587;SDS011;2816;49.778;9.986;2023-04-01T04:47:22;1.10;;;1.00;;
5587;SDS011;2816;49.778;9.986;2023-04-01T04:49:49;5.40;;;1.60;;
5587;SDS011;2816;49.778;9.986;2023-04-01T04:52:16;2.80;;;1.00;;
5587;SDS011;2816;49.778;9.986;2023-04-01T04:54:42;2.60;;;1.17;;
5587;SDS011;2816;49.778;9.986;2023-04-01T04:57:09;1.57;;;0.90;;
5587;SDS011;2816;49.778;9.986;2023-04-01T04:59:37;1.97;;;1.20;;
5587;SDS011;2816;49.778;9.986;2023-04-01T05:02:04;2.13;;;0.90;;
5587;SDS011;2816;49.778;9.986;2023-04-01T05:04:34;5.60;;;1.20;;
5587;SDS011;2816;49.778;9.986;2023-04-01T05:07:01;2.50;;;1.13;;
5587;SDS011;2816;49.778;9.986;2023-04-01T05:09:28;2.13;;;1.10;;
5587;SDS011;2816;49.778;9.986;2023-04-01T05:11:56;3.40;;;1.27;;
5587;SDS011;2816;49.778;9.986;2023-04-01T05:14:23;1.43;;;0.97;;
5587;SDS011;2816;49.778;9.986;2023-04-01T05:16:51;0.90;;;0.90;;
5587;SDS011;2816;49.778;9.986;2023-04-01T05:19:19;3.03;;;1.33;;
5587;SDS011;2816;49.778;9.986;2023-04-01T05:21:47;3.33;;;1.03;;
5587;SDS011;2816;49.778;9.986;2023-04-01T05:24:15;3.27;;;1.60;;
5587;SDS011;2816;49.778;9.986;2023-04-01T05:26:41;1.30;;;1.00;;
5587;SDS011;2816;49.778;9.986;2023-04-01T05:29:08;2.83;;;1.07;;
5587;SDS011;2816;49.778;9.986;2023-04-01T05:31:36;1.10;;;1.10;;
5587;SDS011;2816;49.778;9.986;2023-04-01T05:34:04;1.07;;;1.00;;
5587;SDS011;2816;49.778;9.986;2023-04-01T05:36:31;4.27;;;1.60;;
5587;SDS011;2816;49.778;9.986;2023-04-01T05:38:58;6.50;;;1.17;;
5587;SDS011;2816;49.778;9.986;2023-04-01T05:41:25;1.53;;;1.00;;
5587;SDS011;2816;49.778;9.986;2023-04-01T05:43:52;3.67;;;1.33;;
5587;SDS011;2816;49.778;9.986;2023-04-01T05:46:19;2.23;;;1.10;;
5587;SDS011;2816;49.778;9.986;2023-04-01T05:48:47;3.50;;;1.40;;
5587;SDS011;2816;49.778;9.986;2023-04-01T05:51:15;1.30;;;0.97;;
5587;SDS011;2816;49.778;9.986;2023-04-01T05:53:42;1.63;;;1.23;;
5587;SDS011;2816;49.778;9.986;2023-04-01T05:56:09;1.77;;;1.20;;
5587;SDS011;2816;49.778;9.986;2023-04-01T05:58:36;3.13;;;1.23;;
5587;SDS011;2816;49.778;9.986;2023-04-01T06:01:04;3.40;;;1.20;;
5587;SDS011;2816;49.778;9.986;2023-04-01T06:03:32;4.20;;;1.30;;
5587;SDS011;2816;49.778;9.986;2023-04-01T06:05:59;1.83;;;0.90;;
5587;SDS011;2816;49.778;9.986;2023-04-01T06:08:29;2.77;;;1.10;;
5587;SDS011;2816;49.778;9.986;2023-04-01T06:11:11;3.63;;;1.20;;
5587;SDS011;2816;49.778;9.986;2023-04-01T06:14:10;1.30;;;1.00;;
5587;SDS011;2816;49.778;9.986;2023-04-01T06:16:44;8.07;;;1.20;;
5587;SDS011;2816;49.778;9.986;2023-04-01T06:19:29;3.10;;;1.30;;
5587;SDS011;2816;49.778;9.986;2023-04-01T06:22:12;2.20;;;1.40;;
5587;SDS011;2816;49.778;9.986;2023-04-01T06:24:55;4.00;;;2.40;;
5587;SDS011;2816;49.778;9.986;2023-04-01T06:27:33;4.50;;;1.40;;
5587;SDS011;2816;49.778;9.986;2023-04-01T06:30:16;3.53;;;2.73;;
5587;SDS011;2816;49.778;9.986;2023-04-01T06:32:59;3.20;;;2.27;;
5587;SDS011;2816;49.778;9.986;2023-04-01T06:35:52;7.70;;;2.97;;
5587;SDS011;2816;49.778;9.986;2023-04-01T06:38:45;1.63;;;1.40;;
5587;SDS011;2816;49.778;9.986;2023-04-01T06:41:36;3.73;;;2.80;;
5587;SDS011;2816;49.778;9.986;2023-04-01T06:44:26;2.30;;;1.43;;
5587;SDS011;2816;49.778;9.986;2023-04-01T06:47:02;3.70;;;2.20;;
5587;SDS011;2816;49.778;9.986;2023-04-01T06:49:41;6.20;;;1.70;;
5587;SDS011;2816;49.778;9.986;2023-04-01T06:52:17;4.70;;;2.40;;
5587;SDS011;2816;49.778;9.986;2023-04-01T06:54:50;2.93;;;1.80;;
5587;SDS011;2816;49.778;9.986;2023-04-01T06:57:23;2.50;;;1.30;;
5587;SDS011;2816;49.778;9.986;2023-04-01T06:59:57;3.67;;;1.50;;
5587;SDS011;2816;49.778;9.986;2023-04-01T07:02:28;4.43;;;1.47;;
5587;SDS011;2816;49.778;9.986;2023-04-01T07:05:00;2.10;;;1.30;;
5587;SDS011;2816;49.778;9.986;2023-04-01T07:07:30;2.90;;;1.73;;
5587;SDS011;2816;49.778;9.986;2023-04-01T07:10:02;3.10;;;1.37;;
5587;SDS011;2816;49.778;9.986;2023-04-01T07:12:40;4.60;;;2.57;;
5587;SDS011;2816;49.778;9.986;2023-04-01T07:15:13;5.13;;;3.17;;
5587;SDS011;2816;49.778;9.986;2023-04-01T07:17:47;6.30;;;2.10;;
5587;SDS011;2816;49.778;9.986;2023-04-01T07:20:20;6.77;;;2.57;;
5587;SDS011;2816;49.778;9.986;2023-04-01T07:22:51;6.00;;;3.67;;
5587;SDS011;2816;49.778;9.986;2023-04-01T07:25:21;3.77;;;1.87;;
5587;SDS011;2816;49.778;9.986;2023-04-01T07:27:53;4.40;;;1.90;;
5587;SDS011;2816;49.778;9.986;2023-04-01T07:30:26;4.13;;;1.73;;
5587;SDS011;2816;49.778;9.986;2023-04-01T07:33:00;5.30;;;2.30;;
5587;SDS011;2816;49.778;9.986;2023-04-01T07:35:35;4.77;;;2.07;;
5587;SDS011;2816;49.778;9.986;2023-04-01T07:38:12;6.80;;;2.77;;
5587;SDS011;2816;49.778;9.986;2023-04-01T07:40:46;7.23;;;3.40;;
5587;SDS011;2816;49.778;9.986;2023-04-01T07:43:25;4.60;;;2.60;;
5587;SDS011;2816;49.778;9.986;2023-04-01T07:46:06;6.00;;;2.37;;
5587;SDS011;2816;49.778;9.986;2023-04-01T07:48:45;3.60;;;1.73;;
5587;SDS011;2816;49.778;9.986;2023-04-01T07:51:21;3.60;;;1.70;;
5587;SDS011;2816;49.778;9.986;2023-04-01T07:53:54;2.37;;;1.77;;
5587;SDS011;2816;49.778;9.986;2023-04-01T07:56:28;6.30;;;1.50;;
5587;SDS011;2816;49.778;9.986;2023-04-01T07:59:05;2.87;;;1.00;;
5587;SDS011;2816;49.778;9.986;2023-04-01T08:01:39;2.00;;;1.30;;
5587;SDS011;2816;49.778;9.986;2023-04-01T08:04:21;2.00;;;1.20;;
5587;SDS011;2816;49.778;9.986;2023-04-01T08:06:53;2.87;;;1.27;;
5587;SDS011;2816;49.778;9.986;2023-04-01T08:09:30;2.03;;;1.00;;
5587;SDS011;2816;49.778;9.986;2023-04-01T08:12:08;4.93;;;1.60;;
5587;SDS011;2816;49.778;9.986;2023-04-01T08:14:46;1.30;;;1.20;;
5587;SDS011;2816;49.778;9.986;2023-04-01T08:17:23;2.50;;;1.53;;
5587;SDS011;2816;49.778;9.986;2023-04-01T08:20:02;3.63;;;1.30;;
5587;SDS011;2816;49.778;9.986;2023-04-01T08:22:41;0.90;;;0.90;;
5587;SDS011;2816;49.778;9.986;2023-04-01T08:25:13;0.80;;;0.80;;
5587;SDS011;2816;49.778;9.986;2023-04-01T08:27:46;2.47;;;1.00;;
5587;SDS011;2816;49.778;9.986;2023-04-01T08:30:18;1.83;;;1.10;;
5587;SDS011;2816;49.778;9.986;2023-04-01T08:32:47;1.47;;;1.10;;
5587;SDS011;2816;49.778;9.986;2023-04-01T08:35:21;1.60;;;1.07;;
5587;SDS011;2816;49.778;9.986;2023-04-01T08:37:54;1.43;;;1.00;;
5587;SDS011;2816;49.778;9.986;2023-04-01T08:40:34;2.07;;;1.00;;
5587;SDS011;2816;49.778;9.986;2023-04-01T08:43:09;1.73;;;0.90;;
5587;SDS011;2816;49.778;9.986;2023-04-01T08:45:47;0.80;;;0.80;;
5587;SDS011;2816;49.778;9.986;2023-04-01T08:54:43;0.90;;;0.90;;
5587;SDS011;2816;49.778;9.986;2023-04-01T08:57:21;2.57;;;1.10;;
5587;SDS011;2816;49.778;9.986;2023-04-01T09:00:01;1.43;;;1.13;;
5587;SDS011;2816;49.778;9.986;2023-04-01T09:02:56;1.00;;;0.83;;
5587;SDS011;2816;49.778;9.986;2023-04-01T09:06:01;3.13;;;1.03;;
5587;SDS011;2816;49.778;9.986;2023-04-01T09:08:53;3.13;;;0.93;;
5587;SDS011;2816;49.778;9.986;2023-04-01T09:11:41;1.10;;;0.77;;
5587;SDS011;2816;49.778;9.986;2023-04-01T09:14:35;1.90;;;1.10;;
5587;SDS011;2816;49.778;9.986;2023-04-01T09:20:24;1.00;;;0.90;;
5587;SDS011;2816;49.778;9.986;2023-04-01T09:23:10;0.93;;;0.70;;
5587;SDS011;2816;49.778;9.986;2023-04-01T09:26:02;0.90;;;0.80;;
5587;SDS011;2816;49.778;9.986;2023-04-01T09:28:39;3.37;;;1.20;;
5587;SDS011;2816;49.778;9.986;2023-04-01T09:31:14;1.30;;;0.97;;
5587;SDS011;2816;49.778;9.986;2023-04-01T09:34:06;1.17;;;0.90;;
5587;SDS011;2816;49.778;9.986;2023-04-01T09:36:58;0.80;;;0.80;;
5587;SDS011;2816;49.778;9.986;2023-04-01T09:39:49;0.80;;;0.80;;
5587;SDS011;2816;49.778;9.986;2023-04-01T09:42:33;0.80;;;0.80;;
5587;SDS011;2816;49.778;9.986;2023-04-01T09:45:15;0.80;;;0.80;;
5587;SDS011;2816;49.778;9.986;2023-04-01T09:47:51;1.90;;;1.00;;
5587;SDS011;2816;49.778;9.986;2023-04-01T09:50:29;6.40;;;0.90;;
5587;SDS011;2816;49.778;9.986;2023-04-01T09:53:14;1.43;;;1.00;;
5587;SDS011;2816;49.778;9.986;2023-04-01T09:56:05;1.43;;;0.97;;
5587;SDS011;2816;49.778;9.986;2023-04-01T09:59:13;0.80;;;0.80;;
5587;SDS011;2816;49.778;9.986;2023-04-01T10:02:03;1.17;;;0.70;;
5587;SDS011;2816;49.778;9.986;2023-04-01T10:08:04;1.37;;;0.80;;
5587;SDS011;2816;49.778;9.986;2023-04-01T10:17:33;1.73;;;1.00;;
5587;SDS011;2816;49.778;9.986;2023-04-01T10:20:22;1.10;;;0.90;;
5587;SDS011;2816;49.778;9.986;2023-04-01T10:23:20;0.80;;;0.80;;
5587;SDS011;2816;49.778;9.986;2023-04-01T10:29:14;0.67;;;0.67;;
5587;SDS011;2816;49.778;9.986;2023-04-01T10:38:19;0.90;;;0.90;;
5587;SDS011;2816;49.778;9.986;2023-04-01T10:50:17;1.77;;;0.90;;
5587;SDS011;2816;49.778;9.986;2023-04-01T10:53:07;1.73;;;0.80;;
5587;SDS011;2816;49.778;9.986;2023-04-01T10:56:07;1.37;;;0.80;;
5587;SDS011;2816;49.778;9.986;2023-04-01T11:05:27;1.67;;;0.90;;
5587;SDS011;2816;49.778;9.986;2023-04-01T11:12:02;1.57;;;0.90;;
5587;SDS011;2816;49.778;9.986;2023-04-01T11:14:55;0.70;;;0.70;;
5587;SDS011;2816;49.778;9.986;2023-04-01T11:23:54;1.30;;;0.90;;
5587;SDS011;2816;49.778;9.986;2023-04-01T11:26:39;1.07;;;0.90;;
5587;SDS011;2816;49.778;9.986;2023-04-01T11:29:26;0.80;;;0.80;;
5587;SDS011;2816;49.778;9.986;2023-04-01T11:32:12;0.90;;;0.90;;
5587;SDS011;2816;49.778;9.986;2023-04-01T11:34:56;2.73;;;0.90;;
5587;SDS011;2816;49.778;9.986;2023-04-01T11:37:38;0.90;;;0.90;;
5587;SDS011;2816;49.778;9.986;2023-04-01T11:40:17;0.83;;;0.83;;
5587;SDS011;2816;49.778;9.986;2023-04-01T11:42:55;0.90;;;0.77;;
5587;SDS011;2816;49.778;9.986;2023-04-01T11:45:32;0.73;;;0.70;;
5587;SDS011;2816;49.778;9.986;2023-04-01T11:51:12;0.83;;;0.83;;
5587;SDS011;2816;49.778;9.986;2023-04-01T11:53:56;2.17;;;1.33;;
5587;SDS011;2816;49.778;9.986;2023-04-01T11:56:33;2.13;;;0.93;;
5587;SDS011;2816;49.778;9.986;2023-04-01T12:02:20;0.80;;;0.80;;
5587;SDS011;2816;49.778;9.986;2023-04-01T12:04:58;1.53;;;0.90;;
5587;SDS011;2816;49.778;9.986;2023-04-01T12:07:44;1.33;;;1.10;;
5587;SDS011;2816;49.778;9.986;2023-04-01T12:10:21;1.13;;;1.03;;
5587;SDS011;2816;49.778;9.986;2023-04-01T12:12:54;2.03;;;1.23;;
5587;SDS011;2816;49.778;9.986;2023-04-01T12:15:30;1.20;;;1.10;;
5587;SDS011;2816;49.778;9.986;2023-04-01T12:18:05;1.33;;;1.07;;
5587;SDS011;2816;49.778;9.986;2023-04-01T12:20:44;1.60;;;1.40;;
5587;SDS011;2816;49.778;9.986;2023-04-01T12:23:28;1.57;;;1.47;;
5587;SDS011;2816;49.778;9.986;2023-04-01T12:26:21;1.70;;;1.43;;
5587;SDS011;2816;49.778;9.986;2023-04-01T12:29:07;1.67;;;1.10;;
5587;SDS011;2816;49.778;9.986;2023-04-01T12:31:42;1.37;;;1.10;;
5587;SDS011;2816;49.778;9.986;2023-04-01T12:34:24;1.50;;;1.07;;
5587;SDS011;2816;49.778;9.986;2023-04-01T12:37:18;1.00;;;1.00;;
5587;SDS011;2816;49.778;9.986;2023-04-01T12:42:58;0.80;;;0.80;;
5587;SDS011;2816;49.778;9.986;2023-04-01T12:45:32;1.07;;;0.90;;
5587;SDS011;2816;49.778;9.986;2023-04-01T12:50:58;2.57;;;1.60;;
5587;SDS011;2816;49.778;9.986;2023-04-01T12:53:39;1.40;;;0.90;;
5587;SDS011;2816;49.778;9.986;2023-04-01T12:56:18;1.40;;;0.97;;
5587;SDS011;2816;49.778;9.986;2023-04-01T12:59:00;0.77;;;0.77;;
5587;SDS011;2816;49.778;9.986;2023-04-01T13:07:39;0.77;;;0.77;;
5587;SDS011;2816;49.778;9.986;2023-04-01T13:10:18;0.90;;;0.90;;
5587;SDS011;2816;49.778;9.986;2023-04-01T13:13:03;0.90;;;0.90;;
5587;SDS011;2816;49.778;9.986;2023-04-01T13:15:48;0.80;;;0.80;;
5587;SDS011;2816;49.778;9.986;2023-04-01T13:18:24;0.90;;;0.90;;
5587;SDS011;2816;49.778;9.986;2023-04-01T13:21:02;1.20;;;1.10;;
5587;SDS011;2816;49.778;9.986;2023-04-01T13:23:38;1.00;;;1.00;;
5587;SDS011;2816;49.778;9.986;2023-04-01T13:26:18;1.30;;;0.80;;
5587;SDS011;2816;49.778;9.986;2023-04-01T13:28:53;1.03;;;0.97;;
5587;SDS011;2816;49.778;9.986;2023-04-01T13:34:36;1.10;;;1.00;;
5587;SDS011;2816;49.778;9.986;2023-04-01T13:37:15;1.00;;;0.90;;
5587;SDS011;2816;49.778;9.986;2023-04-01T13:39:54;2.13;;;1.00;;
5587;SDS011;2816;49.778;9.986;2023-04-01T13:42:29;0.80;;;0.80;;
5587;SDS011;2816;49.778;9.986;2023-04-01T13:45:09;1.27;;;0.97;;
5587;SDS011;2816;49.778;9.986;2023-04-01T13:47:55;1.53;;;1.07;;
5587;SDS011;2816;49.778;9.986;2023-04-01T13:50:53;1.00;;;0.90;;
5587;SDS011;2816;49.778;9.986;2023-04-01T13:53:43;0.90;;;0.90;;
5587;SDS011;2816;49.778;9.986;2023-04-01T13:56:29;1.67;;;1.00;;
5587;SDS011;2816;49.778;9.986;2023-04-01T14:02:13;2.33;;;1.53;;
5587;SDS011;2816;49.778;9.986;2023-04-01T14:05:17;1.40;;;1.30;;
5587;SDS011;2816;49.778;9.986;2023-04-01T14:08:06;5.30;;;1.23;;
5587;SDS011;2816;49.778;9.986;2023-04-01T14:10:40;1.27;;;1.17;;
5587;SDS011;2816;49.778;9.986;2023-04-01T14:13:12;3.80;;;1.40;;
5587;SDS011;2816;49.778;9.986;2023-04-01T14:15:53;1.30;;;1.20;;
5587;SDS011;2816;49.778;9.986;2023-04-01T14:18:42;1.40;;;1.30;;
5587;SDS011;2816;49.778;9.986;2023-04-01T14:21:27;1.57;;;1.47;;
5587;SDS011;2816;49.778;9.986;2023-04-01T14:24:14;1.23;;;1.00;;
5587;SDS011;2816;49.778;9.986;2023-04-01T14:29:52;1.00;;;1.00;;
5587;SDS011;2816;49.778;9.986;2023-04-01T14:32:43;0.90;;;0.90;;
5587;SDS011;2816;49.778;9.986;2023-04-01T14:35:23;2.10;;;1.63;;
5587;SDS011;2816;49.778;9.986;2023-04-01T14:38:21;1.13;;;1.07;;
5587;SDS011;2816;49.778;9.986;2023-04-01T14:40:56;1.30;;;1.20;;
5587;SDS011;2816;49.778;9.986;2023-04-01T14:43:44;1.43;;;1.10;;
5587;SDS011;2816;49.778;9.986;2023-04-01T14:46:32;3.13;;;1.10;;
5587;SDS011;2816;49.778;9.986;2023-04-01T14:49:23;1.00;;;0.90;;
5587;SDS011;2816;49.778;9.986;2023-04-01T14:51:57;2.03;;;1.03;;
5587;SDS011;2816;49.778;9.986;2023-04-01T14:54:33;1.17;;;1.00;;
5587;SDS011;2816;49.778;9.986;2023-04-01T14:57:05;1.00;;;1.00;;
5587;SDS011;2816;49.778;9.986;2023-04-01T14:59:39;1.63;;;1.10;;
5587;SDS011;2816;49.778;9.986;2023-04-01T15:02:10;1.20;;;1.10;;
5587;SDS011;2816;49.778;9.986;2023-04-01T15:04:50;0.90;;;0.90;;
5587;SDS011;2816;49.778;9.986;2023-04-01T15:10:37;1.20;;;1.03;;
5587;SDS011;2816;49.778;9.986;2023-04-01T15:16:25;0.97;;;0.87;;
5587;SDS011;2816;49.778;9.986;2023-04-01T15:19:01;1.13;;;1.10;;
5587;SDS011;2816;49.778;9.986;2023-04-01T15:21:45;1.20;;;1.10;;
5587;SDS011;2816;49.778;9.986;2023-04-01T15:24:24;1.23;;;1.10;;
5587;SDS011;2816;49.778;9.986;2023-04-01T15:27:08;2.13;;;1.20;;
5587;SDS011;2816;49.778;9.986;2023-04-01T15:30:02;1.30;;;1.20;;
5587;SDS011;2816;49.778;9.986;2023-04-01T15:32:49;1.77;;;1.67;;
5587;SDS011;2816;49.778;9.986;2023-04-01T15:35:30;1.13;;;1.10;;
5587;SDS011;2816;49.778;9.986;2023-04-01T15:38:05;1.57;;;1.47;;
5587;SDS011;2816;49.778;9.986;2023-04-01T15:40:40;1.50;;;1.40;;
5587;SDS011;2816;49.778;9.986;2023-04-01T15:43:17;1.40;;;1.27;;
5587;SDS011;2816;49.778;9.986;2023-04-01T15:45:56;9.23;;;1.50;;
5587;SDS011;2816;49.778;9.986;2023-04-01T15:48:45;1.63;;;1.10;;
5587;SDS011;2816;49.778;9.986;2023-04-01T15:51:25;1.33;;;1.23;;
5587;SDS011;2816;49.778;9.986;2023-04-01T15:57:13;1.77;;;1.20;;
5587;SDS011;2816;49.778;9.986;2023-04-01T15:59:57;1.27;;;1.17;;
5587;SDS011;2816;49.778;9.986;2023-04-01T16:02:48;1.73;;;1.47;;
5587;SDS011;2816;49.778;9.986;2023-04-01T16:11:06;1.40;;;1.30;;
5587;SDS011;2816;49.778;9.986;2023-04-01T16:13:42;1.60;;;1.50;;
5587;SDS011;2816;49.778;9.986;2023-04-01T16:16:23;1.50;;;1.40;;
5587;SDS011;2816;49.778;9.986;2023-04-01T16:19:01;1.40;;;1.30;;
5587;SDS011;2816;49.778;9.986;2023-04-01T16:21:37;1.73;;;1.20;;
5587;SDS011;2816;49.778;9.986;2023-04-01T16:24:13;1.50;;;1.20;;
5587;SDS011;2816;49.778;9.986;2023-04-01T16:26:48;2.80;;;1.47;;
5587;SDS011;2816;49.778;9.986;2023-04-01T16:29:24;2.40;;;1.27;;
5587;SDS011;2816;49.778;9.986;2023-04-01T16:32:12;1.80;;;1.70;;
5587;SDS011;2816;49.778;9.986;2023-04-01T16:34:46;1.80;;;1.70;;
5587;SDS011;2816;49.778;9.986;2023-04-01T16:37:21;2.00;;;1.90;;
5587;SDS011;2816;49.778;9.986;2023-04-01T16:40:01;1.93;;;1.60;;
5587;SDS011;2816;49.778;9.986;2023-04-01T16:42:39;1.60;;;1.50;;
5587;SDS011;2816;49.778;9.986;2023-04-01T16:45:16;1.80;;;1.40;;
5587;SDS011;2816;49.778;9.986;2023-04-01T16:47:51;1.60;;;1.37;;
5587;SDS011;2816;49.778;9.986;2023-04-01T16:50:23;1.83;;;1.50;;
5587;SDS011;2816;49.778;9.986;2023-04-01T16:52:55;1.60;;;1.50;;
5587;SDS011;2816;49.778;9.986;2023-04-01T16:55:34;1.33;;;1.23;;
5587;SDS011;2816;49.778;9.986;2023-04-01T16:58:02;1.47;;;1.37;;
5587;SDS011;2816;49.778;9.986;2023-04-01T17:00:30;2.73;;;2.00;;
5587;SDS011;2816;49.778;9.986;2023-04-01T17:03:08;1.50;;;1.40;;
5587;SDS011;2816;49.778;9.986;2023-04-01T17:05:45;1.23;;;1.23;;
5587;SDS011;2816;49.778;9.986;2023-04-01T17:08:22;2.10;;;1.70;;
5587;SDS011;2816;49.778;9.986;2023-04-01T17:11:04;1.30;;;1.20;;
5587;SDS011;2816;49.778;9.986;2023-04-01T17:13:46;2.20;;;1.20;;
5587;SDS011;2816;49.778;9.986;2023-04-01T17:16:26;1.90;;;1.63;;
5587;SDS011;2816;49.778;9.986;2023-04-01T17:19:08;1.60;;;1.40;;
5587;SDS011;2816;49.778;9.986;2023-04-01T17:21:47;1.40;;;1.30;;
5587;SDS011;2816;49.778;9.986;2023-04-01T17:24:28;1.73;;;1.30;;
5587;SDS011;2816;49.778;9.986;2023-04-01T17:27:08;1.60;;;1.23;;
5587;SDS011;2816;49.778;9.986;2023-04-01T17:29:55;1.00;;;1.00;;
5587;SDS011;2816;49.778;9.986;2023-04-01T17:32:40;1.70;;;1.60;;
5587;SDS011;2816;49.778;9.986;2023-04-01T17:35:19;2.20;;;1.53;;
5587;SDS011;2816;49.778;9.986;2023-04-01T17:37:54;2.30;;;1.80;;
5587;SDS011;2816;49.778;9.986;2023-04-01T17:40:35;1.83;;;1.47;;
5587;SDS011;2816;49.778;9.986;2023-04-01T17:43:12;2.30;;;1.00;;
5587;SDS011;2816;49.778;9.986;2023-04-01T17:45:48;1.43;;;1.33;;
5587;SDS011;2816;49.778;9.986;2023-04-01T17:48:22;2.40;;;1.40;;